createdAt,value
2023-12-03T00:01:21.695Z,99393.53
2023-12-03T00:04:23.991Z,99390.97
2023-12-03T00:07:26.411Z,99407.38
2023-12-03T00:10:28.481Z,99407.38
2023-12-03T00:13:30.837Z,99403.94
2023-12-03T00:16:32.767Z,99427.25
2023-12-03T00:19:34.810Z,99325.38
2023-12-03T00:22:36.953Z,99410.84
2023-12-03T00:25:39.189Z,99469.56
2023-12-03T00:28:41.177Z,99460.06
2023-12-03T00:31:43.251Z,99483.38
2023-12-03T00:34:45.246Z,99479.94
2023-12-03T00:37:47.218Z,99466.09
2023-12-03T00:40:49.216Z,99479.94
2023-12-03T00:43:51.344Z,99477.31
2023-12-03T00:46:53.436Z,99417.72
2023-12-03T00:49:55.408Z,99522.25
2023-12-03T00:52:57.652Z,99513.59
2023-12-03T00:55:59.694Z,99531.75
2023-12-03T00:59:01.778Z,99518.78
2023-12-03T01:02:03.830Z,99551.63
2023-12-03T01:05:06.095Z,99530.00
2023-12-03T01:08:08.113Z,99568.06
2023-12-03T01:11:11.217Z,99564.59
2023-12-03T01:14:13.220Z,99567.16
2023-12-03T01:17:15.330Z,99584.47
2023-12-03T01:20:17.932Z,99598.28
2023-12-03T01:23:20.123Z,99603.44
2023-12-03T01:26:22.147Z,99619.00
2023-12-03T01:29:24.184Z,99636.28
2023-12-03T01:32:26.156Z,99623.31
2023-12-03T01:35:28.196Z,99639.75
2023-12-03T01:38:30.603Z,99645.81
2023-12-03T01:41:33.738Z,99643.22
2023-12-03T01:44:36.476Z,99644.91
2023-12-03T01:47:39.464Z,99653.53
2023-12-03T01:50:42.394Z,99654.41
2023-12-03T01:53:45.055Z,99656.16
2023-12-03T01:56:48.989Z,99661.34
2023-12-03T01:59:50.896Z,99656.13
2023-12-03T02:02:52.929Z,99610.25
2023-12-03T02:06:06.180Z,99675.13
2023-12-03T02:09:08.696Z,99687.19
2023-12-03T02:12:10.718Z,99658.56
2023-12-03T02:15:12.803Z,99694.94
2023-12-03T02:18:15.523Z,99698.34
2023-12-03T02:21:17.529Z,99628.19
2023-12-03T02:24:19.504Z,99709.59
2023-12-03T02:27:21.528Z,99706.09
2023-12-03T02:30:23.864Z,99713.84
2023-12-03T02:33:26.039Z,99706.88
2023-12-03T02:36:28.231Z,99709.41
2023-12-03T02:39:30.146Z,99661.66
2023-12-03T02:42:32.839Z,99743.94
2023-12-03T02:45:34.858Z,99770.78
2023-12-03T02:48:36.951Z,99787.09
2023-12-03T02:51:39.030Z,99804.38
2023-12-03T02:54:41.022Z,99812.13
2023-12-03T02:57:43.175Z,99773.91
2023-12-03T03:00:45.147Z,99835.41
2023-12-03T03:03:47.280Z,99846.66
2023-12-03T03:06:49.749Z,99867.38
2023-12-03T03:09:51.772Z,99867.31
2023-12-03T03:12:53.945Z,99858.63
2023-12-03T03:15:55.920Z,99894.09
2023-12-03T03:18:58.067Z,99913.16
2023-12-03T03:22:00.216Z,99886.28
2023-12-03T03:25:02.191Z,99914.88
2023-12-03T03:28:04.347Z,99917.47
2023-12-03T03:31:06.592Z,99920.88
2023-12-03T03:34:08.928Z,99887.88
2023-12-03T03:37:11.078Z,99935.66
2023-12-03T03:40:13.430Z,99928.72
2023-12-03T03:43:15.744Z,99935.63
2023-12-03T03:46:17.776Z,99925.25
2023-12-03T03:49:19.815Z,99952.13
2023-12-03T03:52:21.951Z,99955.56
2023-12-03T03:55:23.873Z,99952.13
2023-12-03T03:58:26.408Z,99936.47
2023-12-03T04:01:28.341Z,99952.97
2023-12-03T04:04:30.398Z,99966.84
2023-12-03T04:07:32.530Z,99984.16
2023-12-03T04:10:34.618Z,99952.00
2023-12-03T04:13:37.528Z,99980.66
2023-12-03T04:16:40.422Z,99982.41
2023-12-03T04:19:42.447Z,99995.34
2023-12-03T04:22:44.389Z,100003.09
2023-12-03T04:25:46.390Z,100017.81
2023-12-03T04:28:48.375Z,100000.41
2023-12-03T04:31:50.542Z,99867.59
2023-12-03T04:34:52.551Z,100008.19
2023-12-03T04:37:54.568Z,100041.16
2023-12-03T04:40:56.497Z,100045.47
2023-12-03T04:43:58.430Z,100047.13
2023-12-03T04:47:00.294Z,100048.06
2023-12-03T04:50:02.284Z,100049.84
2023-12-03T04:53:04.152Z,100051.53
2023-12-03T04:56:06.749Z,100048.03
2023-12-03T04:59:08.776Z,100054.94
2023-12-03T05:02:10.794Z,100019.34
2023-12-03T05:05:12.838Z,100071.41
2023-12-03T05:08:14.779Z,100023.63
2023-12-03T05:11:16.730Z,100063.56
2023-12-03T05:14:18.666Z,100070.41
2023-12-03T05:17:20.622Z,100090.38
2023-12-03T05:20:22.619Z,100090.34
2023-12-03T05:23:25.780Z,100109.34
2023-12-03T05:26:27.734Z,100083.28
2023-12-03T05:29:29.624Z,100124.06
2023-12-03T05:32:31.772Z,100122.28
2023-12-03T05:35:34.322Z,100136.03
2023-12-03T05:38:39.157Z,100149.97
2023-12-03T05:41:41.330Z,100166.41
2023-12-03T05:44:43.401Z,100158.59
2023-12-03T05:47:45.499Z,100167.22
2023-12-03T05:50:47.473Z,100155.88
2023-12-03T05:53:49.390Z,100181.03
2023-12-03T05:56:51.384Z,100192.25
2023-12-03T05:59:55.067Z,100140.91
2023-12-03T06:03:00.421Z,100180.03
2023-12-03T06:06:02.493Z,100203.44
2023-12-03T06:09:05.973Z,100207.69
2023-12-03T06:12:08.263Z,100223.19
2023-12-03T06:15:10.701Z,100171.81
2023-12-03T06:18:12.648Z,100239.66
2023-12-03T06:21:14.661Z,100205.81
2023-12-03T06:24:17.296Z,100265.69
2023-12-03T06:27:19.288Z,100260.50
2023-12-03T06:30:21.337Z,100163.88
2023-12-03T06:33:24.158Z,100263.91
2023-12-03T06:36:29.406Z,100254.34
2023-12-03T06:39:31.553Z,100190.72
2023-12-03T06:42:33.744Z,100263.94
2023-12-03T06:45:36.060Z,100265.69
2023-12-03T06:48:38.155Z,100277.03
2023-12-03T06:51:40.158Z,100280.53
2023-12-03T06:54:42.119Z,100273.53
2023-12-03T06:57:44.178Z,100290.09
2023-12-03T07:00:46.246Z,100284.06
2023-12-03T07:03:48.340Z,100288.44
2023-12-03T07:06:50.416Z,100275.44
2023-12-03T07:09:53.927Z,100296.47
2023-12-03T07:12:56.071Z,100306.91
2023-12-03T07:15:58.689Z,100315.59
2023-12-03T07:19:00.884Z,100319.97
2023-12-03T07:22:02.889Z,100323.28
2023-12-03T07:25:05.171Z,100325.03
2023-12-03T07:28:07.311Z,100291.06
2023-12-03T07:31:09.709Z,100345.88
2023-12-03T07:34:12.039Z,100354.59
2023-12-03T07:37:14.088Z,100351.09
2023-12-03T07:40:16.120Z,100351.84
2023-12-03T07:43:18.154Z,100362.28
2023-12-03T07:46:20.233Z,100355.38
2023-12-03T07:49:22.323Z,100369.34
2023-12-03T07:52:24.255Z,100361.53
2023-12-03T07:55:26.334Z,100325.78
2023-12-03T07:58:29.046Z,100368.53
2023-12-03T08:01:31.205Z,100383.34
2023-12-03T08:04:33.393Z,100377.28
2023-12-03T08:07:35.506Z,100385.16
2023-12-03T08:10:37.629Z,100382.56
2023-12-03T08:13:39.631Z,100383.44
2023-12-03T08:16:41.545Z,100409.53
2023-12-03T08:19:43.651Z,100410.31
2023-12-03T08:22:45.804Z,100418.13
2023-12-03T08:25:47.789Z,100424.16
2023-12-03T08:28:49.781Z,100424.94
2023-12-03T08:31:51.841Z,100420.56
2023-12-03T08:34:54.553Z,100434.53
2023-12-03T08:37:56.560Z,100427.50
2023-12-03T08:40:58.640Z,100439.78
2023-12-03T08:44:00.583Z,100436.34
2023-12-03T08:47:02.691Z,100399.69
2023-12-03T08:50:05.874Z,100448.31
2023-12-03T08:53:08.635Z,100451.81
2023-12-03T08:56:13.934Z,100408.16
2023-12-03T08:59:15.856Z,100460.47
2023-12-03T09:02:17.781Z,100471.78
2023-12-03T09:05:19.810Z,100476.97
2023-12-03T09:08:21.785Z,100457.91
2023-12-03T09:11:24.579Z,100447.34
2023-12-03T09:14:27.310Z,100477.84
2023-12-03T09:17:29.346Z,100462.09
2023-12-03T09:20:31.421Z,100482.84
2023-12-03T09:23:35.128Z,100478.59
2023-12-03T09:26:37.067Z,100493.38
2023-12-03T09:29:38.992Z,100490.81
2023-12-03T09:32:41.672Z,100509.06
2023-12-03T09:35:43.732Z,100509.13
2023-12-03T09:38:45.633Z,100504.88
2023-12-03T09:41:52.646Z,100498.00
2023-12-03T09:45:02.721Z,100494.47
2023-12-03T09:48:07.162Z,100510.91
2023-12-03T09:51:12.378Z,100516.13
2023-12-03T09:54:14.380Z,100514.41
2023-12-03T09:57:17.115Z,100516.16
2023-12-03T10:00:20.513Z,100520.50
2023-12-03T10:03:22.482Z,100519.66
2023-12-03T10:06:26.295Z,100540.44
2023-12-03T10:09:29.266Z,100539.59
2023-12-03T10:12:42.245Z,100507.28
2023-12-03T10:15:45.474Z,100529.88
2023-12-03T10:18:47.486Z,100535.06
2023-12-03T10:21:53.357Z,100541.97
2023-12-03T10:24:55.535Z,100531.31
2023-12-03T10:27:59.667Z,100532.13
2023-12-03T10:31:01.978Z,100559.06
2023-12-03T10:34:04.483Z,100550.38
2023-12-03T10:37:06.584Z,100555.59
2023-12-03T10:40:08.757Z,100549.38
2023-12-03T10:43:12.841Z,100559.75
2023-12-03T10:46:16.555Z,100571.84
2023-12-03T10:49:21.698Z,100569.09
2023-12-03T10:52:23.989Z,100569.00
2023-12-03T10:55:25.864Z,100577.50
2023-12-03T10:58:27.875Z,100588.69
2023-12-03T11:01:31.798Z,100598.03
2023-12-03T11:04:39.304Z,100600.47
2023-12-03T11:07:42.724Z,100587.34
2023-12-03T11:10:46.009Z,100597.72
2023-12-03T11:13:52.198Z,100581.91
2023-12-03T11:17:33.769Z,100598.59
2023-12-03T11:20:38.623Z,100556.78
2023-12-03T11:23:49.720Z,100603.03
2023-12-03T11:26:51.732Z,100603.84
2023-12-03T11:29:55.621Z,100599.50
2023-12-03T11:32:58.532Z,100612.34
2023-12-03T11:36:01.778Z,100608.94
2023-12-03T11:39:04.957Z,100596.66
2023-12-03T11:42:08.188Z,100606.91
2023-12-03T11:45:29.656Z,100622.56
2023-12-03T11:48:32.923Z,100633.88
2023-12-03T11:51:35.726Z,100634.59
2023-12-03T11:54:58.115Z,100639.78
2023-12-03T11:58:00.113Z,100650.19
2023-12-03T12:01:02.183Z,100653.63
2023-12-03T12:04:04.583Z,100659.69
2023-12-03T12:07:35.962Z,100666.53
2023-12-03T12:10:37.981Z,100657.69
2023-12-03T12:13:39.921Z,100669.94
2023-12-03T12:16:42.007Z,100674.94
2023-12-03T12:19:48.504Z,100660.16
2023-12-03T12:22:52.057Z,100680.19
2023-12-03T12:25:54.697Z,100640.81
2023-12-03T12:28:56.658Z,100652.13
2023-12-03T12:32:00.603Z,100678.28
2023-12-03T12:35:04.044Z,100678.19
2023-12-03T12:38:08.207Z,100683.44
2023-12-03T12:41:12.094Z,100699.84
2023-12-03T12:44:14.149Z,100693.81
2023-12-03T12:47:20.033Z,100694.53
2023-12-03T12:50:36.265Z,100693.75
2023-12-03T12:53:58.214Z,100704.91
2023-12-03T12:57:00.125Z,100679.41
2023-12-03T13:00:02.192Z,100719.38
2023-12-03T13:03:04.371Z,100719.38
2023-12-03T13:06:07.065Z,100702.59
2023-12-03T13:09:10.119Z,100718.34
2023-12-03T13:12:12.177Z,100723.47
2023-12-03T13:15:14.217Z,100714.22
2023-12-03T13:18:22.626Z,100731.75
2023-12-03T13:21:27.719Z,100734.34
2023-12-03T13:24:29.973Z,100663.44
2023-12-03T13:27:31.909Z,100724.47
2023-12-03T13:30:33.939Z,100722.72
2023-12-03T13:33:36.482Z,100727.16
2023-12-03T13:36:39.100Z,100760.16
2023-12-03T13:39:41.409Z,100759.25
2023-12-03T13:42:53.344Z,100764.44
2023-12-03T13:45:55.350Z,100770.34
2023-12-03T13:48:57.597Z,100720.31
2023-12-03T13:51:59.797Z,100766.59
2023-12-03T13:55:01.982Z,100776.25
2023-12-03T13:58:04.488Z,100788.41
2023-12-03T14:01:06.702Z,100751.50
2023-12-03T14:04:08.716Z,100794.28
2023-12-03T14:07:10.753Z,100797.91
2023-12-03T14:10:12.924Z,100809.97
2023-12-03T14:13:14.848Z,100806.53
2023-12-03T14:16:16.825Z,100810.94
2023-12-03T14:19:18.793Z,100810.06
2023-12-03T14:22:20.736Z,100816.06
2023-12-03T14:25:26.959Z,100810.69
2023-12-03T14:28:28.931Z,100780.00
2023-12-03T14:31:34.610Z,100829.00
2023-12-03T14:34:37.230Z,100824.38
2023-12-03T14:37:39.210Z,100826.97
2023-12-03T14:40:41.460Z,100843.47
2023-12-03T14:43:43.392Z,100845.16
2023-12-03T14:46:45.344Z,100836.22
2023-12-03T14:49:47.401Z,100851.97
2023-12-03T14:52:50.075Z,100848.22
2023-12-03T14:55:52.512Z,100843.84
2023-12-03T14:58:55.914Z,100862.91
2023-12-03T15:01:58.990Z,100867.25
2023-12-03T15:05:05.313Z,100862.97
2023-12-03T15:08:07.827Z,100861.03
2023-12-03T15:11:13.050Z,100877.50
2023-12-03T15:14:15.044Z,100875.63
2023-12-03T15:17:17.062Z,100884.31
2023-12-03T15:20:19.708Z,100872.78
2023-12-03T15:23:21.653Z,100880.81
2023-12-03T15:26:23.696Z,100848.31
2023-12-03T15:29:26.303Z,100899.88
2023-12-03T15:32:30.625Z,100861.34
2023-12-03T15:35:32.661Z,100904.19
2023-12-03T15:38:35.385Z,100837.66
2023-12-03T15:41:37.363Z,100897.28
2023-12-03T15:44:39.773Z,100898.25
2023-12-03T15:47:41.829Z,100882.34
2023-12-03T15:50:44.042Z,100912.03
2023-12-03T15:53:46.014Z,100867.28
2023-12-03T15:56:48.060Z,100894.63
2023-12-03T15:59:50.132Z,100911.22
2023-12-03T16:02:53.530Z,100913.91
2023-12-03T16:05:55.669Z,100874.38
2023-12-03T16:09:00.610Z,100925.06
2023-12-03T16:12:02.707Z,100917.13
2023-12-03T16:15:05.273Z,100924.22
2023-12-03T16:18:07.411Z,100936.50
2023-12-03T16:21:09.680Z,100840.81
2023-12-03T16:24:13.178Z,100939.97
2023-12-03T16:27:15.221Z,100946.97
2023-12-03T16:30:17.943Z,100939.97
2023-12-03T16:33:19.970Z,100947.00
2023-12-03T16:36:22.052Z,100955.63
2023-12-03T16:39:24.636Z,100949.69
2023-12-03T16:42:28.183Z,100959.19
2023-12-03T16:45:31.330Z,100950.38
2023-12-03T16:48:33.613Z,100958.25
2023-12-03T16:51:37.340Z,100954.78
2023-12-03T16:54:41.528Z,100946.00
2023-12-03T16:57:43.516Z,100956.34
2023-12-03T17:00:45.534Z,100953.78
2023-12-03T17:03:47.594Z,100953.66
2023-12-03T17:06:49.598Z,100968.28
2023-12-03T17:09:51.580Z,100969.78
2023-12-03T17:12:58.562Z,100964.53
2023-12-03T17:16:01.011Z,100946.47
2023-12-03T17:19:03.248Z,100986.66
2023-12-03T17:22:05.268Z,100984.88
2023-12-03T17:25:07.592Z,100968.94
2023-12-03T17:28:09.703Z,100987.97
2023-12-03T17:31:11.728Z,100983.63
2023-12-03T17:34:13.948Z,100987.88
2023-12-03T17:37:16.822Z,100929.75
2023-12-03T17:40:20.912Z,101009.19
2023-12-03T17:43:24.264Z,101015.16
2023-12-03T17:46:26.673Z,100995.75
2023-12-03T17:49:28.903Z,101027.84
2023-12-03T17:52:31.089Z,101019.84
2023-12-03T17:55:33.006Z,101028.34
2023-12-03T17:58:35.593Z,101030.00
2023-12-03T18:01:38.788Z,101012.38
2023-12-03T18:04:40.931Z,101034.13
2023-12-03T18:07:42.942Z,101031.53
2023-12-03T18:10:46.568Z,100978.66
2023-12-03T18:13:48.808Z,101045.09
2023-12-03T18:16:50.739Z,101038.09
2023-12-03T18:19:53.265Z,101044.19
2023-12-03T18:22:55.884Z,101047.56
2023-12-03T18:25:58.392Z,101038.09
2023-12-03T18:29:00.903Z,101041.50
2023-12-03T18:32:03.009Z,101028.31
2023-12-03T18:35:05.400Z,101041.38
2023-12-03T18:38:07.434Z,101050.16
2023-12-03T18:41:09.358Z,101056.06
2023-12-03T18:44:11.594Z,101053.31
2023-12-03T18:47:13.561Z,101062.78
2023-12-03T18:50:15.522Z,101058.34
2023-12-03T18:53:17.434Z,101059.06
2023-12-03T18:56:19.458Z,101063.09
2023-12-03T18:59:22.364Z,101063.09
2023-12-03T19:02:24.613Z,101067.41
2023-12-03T19:05:26.937Z,101070.75
2023-12-03T19:08:33.393Z,101069.66
2023-12-03T19:11:37.874Z,101062.66
2023-12-03T19:14:39.875Z,101059.03
2023-12-03T19:17:43.442Z,101074.75
2023-12-03T19:20:45.432Z,101083.44
2023-12-03T19:23:47.388Z,101089.41
2023-12-03T19:26:49.366Z,101082.44
2023-12-03T19:29:51.620Z,101083.31
2023-12-03T19:32:53.568Z,101102.66
2023-12-03T19:35:55.663Z,101106.16
2023-12-03T19:38:57.612Z,101110.53
2023-12-03T19:41:59.589Z,101123.75
2023-12-03T19:45:01.513Z,101133.31
2023-12-03T19:48:03.616Z,101116.56
2023-12-03T19:51:06.125Z,101066.34
2023-12-03T19:54:08.044Z,101125.84
2023-12-03T19:57:10.200Z,101118.81
2023-12-03T20:00:12.891Z,101132.69
2023-12-03T20:03:14.902Z,101151.47
2023-12-03T20:06:16.877Z,101131.59
2023-12-03T20:09:19.000Z,101143.75
2023-12-03T20:12:21.007Z,101142.91
2023-12-03T20:15:28.302Z,101147.06
2023-12-03T20:18:35.249Z,101141.00
2023-12-03T20:21:39.220Z,101149.09
2023-12-03T20:24:41.147Z,101144.56
2023-12-03T20:27:43.110Z,101157.28
2023-12-03T20:30:45.252Z,101159.69
2023-12-03T20:33:47.862Z,101159.66
2023-12-03T20:36:49.935Z,101132.19
2023-12-03T20:39:53.286Z,101162.34
2023-12-03T20:42:56.528Z,101151.03
2023-12-03T20:45:58.648Z,101180.72
2023-12-03T20:49:00.752Z,101117.66
2023-12-03T20:52:02.941Z,101159.75
2023-12-03T20:55:05.339Z,101170.38
2023-12-03T20:58:07.487Z,101174.13
2023-12-03T21:01:12.302Z,101152.81
2023-12-03T21:04:14.254Z,101170.06
2023-12-03T21:07:16.342Z,101168.16
2023-12-03T21:10:19.562Z,101190.00
2023-12-03T21:13:21.677Z,101176.22
2023-12-03T21:16:23.537Z,101186.59
2023-12-03T21:19:25.546Z,101184.19
2023-12-03T21:22:27.538Z,101172.94
2023-12-03T21:25:34.180Z,101168.47
2023-12-03T21:28:36.197Z,101170.16
2023-12-03T21:31:38.661Z,101142.22
2023-12-03T21:34:40.693Z,101098.16
2023-12-03T21:37:45.165Z,101138.72
2023-12-03T21:40:47.151Z,101152.03
2023-12-03T21:43:49.120Z,101140.78
2023-12-03T21:46:51.123Z,101149.50
2023-12-03T21:49:53.234Z,101149.69
2023-12-03T21:52:55.658Z,101164.50
2023-12-03T21:55:57.604Z,101167.09
2023-12-03T21:58:59.579Z,101150.31
2023-12-03T22:02:01.495Z,101168.69
2023-12-03T22:05:03.746Z,101130.69
2023-12-03T22:08:05.710Z,101145.03
2023-12-03T22:11:08.011Z,101156.41
2023-12-03T22:14:09.994Z,101168.81
2023-12-03T22:17:11.932Z,101145.84
2023-12-03T22:20:14.243Z,101172.25
2023-12-03T22:23:16.241Z,101140.38
2023-12-03T22:26:18.192Z,101151.25
2023-12-03T22:29:26.390Z,101170.59
2023-12-03T22:32:37.011Z,101172.38
2023-12-03T22:35:40.202Z,101157.56
2023-12-03T22:38:42.905Z,101175.97
2023-12-03T22:41:45.195Z,101169.88
2023-12-03T22:44:47.239Z,101160.13
2023-12-03T22:47:49.214Z,101170.59
2023-12-03T22:50:51.284Z,101171.47
2023-12-03T22:53:53.184Z,101169.56
2023-12-03T22:56:55.204Z,101179.06
2023-12-03T22:59:57.138Z,101174.00
2023-12-03T23:02:59.637Z,101167.19
2023-12-03T23:06:01.675Z,101183.75
2023-12-03T23:09:03.873Z,101185.41
2023-12-03T23:12:06.017Z,101187.19
2023-12-03T23:15:09.333Z,101184.66
2023-12-03T23:18:11.609Z,101186.31
2023-12-03T23:21:13.537Z,101172.25
2023-12-03T23:24:15.477Z,101179.38
2023-12-03T23:27:19.955Z,101183.63
2023-12-03T23:30:22.390Z,101180.22
2023-12-03T23:33:24.459Z,101184.56
2023-12-03T23:36:27.121Z,101175.06
2023-12-03T23:39:29.516Z,101191.38
2023-12-03T23:42:32.585Z,101201.59
2023-12-03T23:45:35.510Z,101198.22
2023-12-03T23:48:39.356Z,101180.69
2023-12-03T23:51:41.418Z,101194.78
2023-12-03T23:54:43.349Z,101185.75
2023-12-03T23:57:46.130Z,101185.75
